createdAt,value
2022-08-17T00:00:34.306Z,2.30
2022-08-17T00:03:08.365Z,2.83
2022-08-17T00:05:43.709Z,2.55
2022-08-17T00:08:12.355Z,2.78
2022-08-17T00:10:40.963Z,2.85
2022-08-17T00:13:16.485Z,3.35
2022-08-17T00:15:45.178Z,2.70
2022-08-17T00:19:02.079Z,3.00
2022-08-17T00:21:05.429Z,2.42
2022-08-17T00:23:39.816Z,2.20
2022-08-17T00:26:16.232Z,2.70
2022-08-17T00:29:04.846Z,3.17
2022-08-17T00:31:33.677Z,3.17
2022-08-17T00:34:03.362Z,3.20
2022-08-17T00:36:31.560Z,3.58
2022-08-17T00:38:59.922Z,2.97
2022-08-17T00:41:29.819Z,2.95
2022-08-17T00:44:02.337Z,2.92
2022-08-17T00:46:33.006Z,2.63
2022-08-17T00:49:02.707Z,2.93
2022-08-17T00:51:34.913Z,2.78
2022-08-17T00:54:08.121Z,3.05
2022-08-17T00:56:42.245Z,2.67
2022-08-17T00:59:12.831Z,2.90
2022-08-17T01:01:41.894Z,3.10
2022-08-17T01:04:14.134Z,2.83
2022-08-17T01:06:47.020Z,3.33
2022-08-17T01:09:17.070Z,2.97
2022-08-17T01:11:46.535Z,3.15
2022-08-17T01:14:14.845Z,3.30
2022-08-17T01:16:43.339Z,3.30
2022-08-17T01:19:19.207Z,3.20
2022-08-17T01:21:54.262Z,2.90
2022-08-17T01:24:24.455Z,2.92
2022-08-17T01:26:52.930Z,2.83
2022-08-17T01:29:26.083Z,2.60
2022-08-17T01:31:58.100Z,2.97
2022-08-17T01:34:33.465Z,2.92
2022-08-17T01:37:11.140Z,2.92
2022-08-17T01:39:45.218Z,3.45
2022-08-17T01:42:19.513Z,2.72
2022-08-17T01:44:48.033Z,3.38
2022-08-17T01:47:16.203Z,3.20
2022-08-17T01:49:45.848Z,2.97
2022-08-17T01:52:14.617Z,3.55
2022-08-17T01:54:47.933Z,3.35
2022-08-17T01:57:16.246Z,2.83
2022-08-17T01:59:44.388Z,3.65
2022-08-17T02:02:12.645Z,3.45
2022-08-17T02:04:59.265Z,3.55
2022-08-17T02:07:27.492Z,2.85
2022-08-17T02:09:57.301Z,3.10
2022-08-17T02:12:37.405Z,2.83
2022-08-17T02:15:09.445Z,2.70
2022-08-17T02:17:37.601Z,3.20
2022-08-17T02:20:07.513Z,2.47
2022-08-17T02:22:37.034Z,2.92
2022-08-17T02:25:09.809Z,2.47
2022-08-17T02:27:39.376Z,3.15
2022-08-17T02:30:59.177Z,2.65
2022-08-17T02:32:59.132Z,3.30
2022-08-17T02:35:32.664Z,3.00
2022-08-17T02:38:01.467Z,3.38
2022-08-17T02:40:36.239Z,2.60
2022-08-17T02:43:05.437Z,2.40
2022-08-17T02:45:33.679Z,3.00
2022-08-17T02:48:01.973Z,3.40
2022-08-17T02:50:30.546Z,2.47
2022-08-17T02:53:01.754Z,2.97
2022-08-17T02:55:35.544Z,2.75
2022-08-17T02:58:03.852Z,2.72
2022-08-17T03:00:34.595Z,3.05
2022-08-17T03:03:04.448Z,3.43
2022-08-17T03:05:34.714Z,3.03
2022-08-17T03:08:03.558Z,3.03
2022-08-17T03:10:33.733Z,2.67
2022-08-17T03:13:02.303Z,2.67
2022-08-17T03:15:33.578Z,2.90
2022-08-17T03:18:03.794Z,2.83
2022-08-17T03:20:34.132Z,3.08
2022-08-17T03:23:03.124Z,2.42
2022-08-17T03:25:34.979Z,2.97
2022-08-17T03:30:32.210Z,2.20
2022-08-17T03:33:03.222Z,3.00
2022-08-17T03:35:33.775Z,3.15
2022-08-17T03:38:02.456Z,3.00
2022-08-17T03:40:34.602Z,2.80
2022-08-17T03:43:23.353Z,3.07
2022-08-17T03:46:27.252Z,2.60
2022-08-17T03:49:15.736Z,2.65
2022-08-17T03:52:01.198Z,2.78
2022-08-17T03:54:46.945Z,2.88
2022-08-17T03:57:16.889Z,2.88
2022-08-17T03:59:45.397Z,3.38
2022-08-17T04:02:19.153Z,2.70
2022-08-17T04:04:50.978Z,3.47
2022-08-17T04:07:19.950Z,3.33
2022-08-17T04:09:48.185Z,2.42
2022-08-17T04:12:19.051Z,3.03
2022-08-17T04:14:53.365Z,2.85
2022-08-17T04:17:24.737Z,2.72
2022-08-17T04:19:53.247Z,2.60
2022-08-17T04:22:30.205Z,2.88
2022-08-17T04:25:03.768Z,2.33
2022-08-17T04:27:33.385Z,2.35
2022-08-17T04:30:01.880Z,2.42
2022-08-17T04:33:04.769Z,2.63
2022-08-17T04:35:23.355Z,2.55
2022-08-17T04:37:51.988Z,2.40
2022-08-17T04:40:38.982Z,2.60
2022-08-17T04:43:10.920Z,2.58
2022-08-17T04:45:55.611Z,2.53
2022-08-17T04:48:28.088Z,2.78
2022-08-17T04:51:05.282Z,2.95
2022-08-17T04:53:33.828Z,2.85
2022-08-17T04:56:02.567Z,3.20
2022-08-17T04:58:32.316Z,3.50
2022-08-17T05:01:00.611Z,2.95
2022-08-17T05:03:28.869Z,3.05
2022-08-17T05:05:57.029Z,2.88
2022-08-17T05:08:25.369Z,3.00
2022-08-17T05:10:53.881Z,2.63
2022-08-17T05:13:24.335Z,2.70
2022-08-17T05:15:57.158Z,3.30
2022-08-17T05:18:25.641Z,3.42
2022-08-17T05:20:54.075Z,2.65
2022-08-17T05:23:24.994Z,3.47
2022-08-17T05:25:56.466Z,2.65
2022-08-17T05:30:58.679Z,2.65
2022-08-17T05:33:29.397Z,3.05
2022-08-17T05:35:59.746Z,3.42
2022-08-17T05:38:30.060Z,3.42
2022-08-17T05:40:59.291Z,2.72
2022-08-17T05:43:29.289Z,3.10
2022-08-17T05:46:06.900Z,2.70
2022-08-17T05:48:39.941Z,2.55
2022-08-17T05:51:32.502Z,2.85
2022-08-17T05:54:22.294Z,3.13
2022-08-17T05:57:06.436Z,2.60
2022-08-17T05:59:43.510Z,2.10
2022-08-17T06:02:22.791Z,2.85
2022-08-17T06:05:18.633Z,2.58
2022-08-17T06:07:51.330Z,2.95
2022-08-17T06:10:28.170Z,2.47
2022-08-17T06:13:04.653Z,2.60
2022-08-17T06:15:43.216Z,2.58
2022-08-17T06:18:18.608Z,3.20
2022-08-17T06:20:51.822Z,3.42
2022-08-17T06:23:30.762Z,2.90
2022-08-17T06:26:03.842Z,3.05
2022-08-17T06:28:39.336Z,2.83
2022-08-17T06:31:14.083Z,2.75
2022-08-17T06:33:47.581Z,3.03
2022-08-17T06:36:30.753Z,2.92
2022-08-17T06:39:17.431Z,2.42
2022-08-17T06:41:56.078Z,2.80
2022-08-17T06:44:43.492Z,3.10
2022-08-17T06:47:28.881Z,2.97
2022-08-17T06:50:09.629Z,2.88
2022-08-17T06:52:47.505Z,3.60
2022-08-17T06:55:19.638Z,3.45
2022-08-17T06:57:52.912Z,3.38
2022-08-17T07:00:24.150Z,3.42
2022-08-17T07:02:59.626Z,3.75
2022-08-17T07:05:36.531Z,3.22
2022-08-17T07:08:17.099Z,3.38
2022-08-17T07:10:50.434Z,3.08
2022-08-17T07:13:35.188Z,3.17
2022-08-17T07:16:14.814Z,3.30
2022-08-17T07:18:43.837Z,2.97
2022-08-17T07:21:26.654Z,3.67
2022-08-17T07:24:08.093Z,3.80
2022-08-17T07:26:36.774Z,3.38
2022-08-17T07:29:05.083Z,3.45
2022-08-17T07:31:33.776Z,3.50
2022-08-17T07:34:08.497Z,3.10
2022-08-17T07:36:38.244Z,4.10
2022-08-17T07:39:06.674Z,2.75
2022-08-17T07:41:58.650Z,3.25
2022-08-17T07:44:28.323Z,3.22
2022-08-17T07:47:14.640Z,3.50
2022-08-17T07:49:47.012Z,3.67
2022-08-17T07:52:47.839Z,3.28
2022-08-17T07:55:30.830Z,3.78
2022-08-17T07:58:00.816Z,3.20
2022-08-17T08:00:32.422Z,5.20
2022-08-17T08:03:18.610Z,3.72
2022-08-17T08:05:53.179Z,4.53
2022-08-17T08:08:30.435Z,6.22
2022-08-17T08:11:02.441Z,5.50
2022-08-17T08:13:32.330Z,4.90
2022-08-17T08:16:25.882Z,4.50
2022-08-17T08:18:58.112Z,4.90
2022-08-17T08:21:37.435Z,4.78
2022-08-17T08:24:24.369Z,4.60
2022-08-17T08:27:08.944Z,4.85
2022-08-17T08:29:52.762Z,4.20
2022-08-17T08:32:28.707Z,5.57
2022-08-17T08:35:05.468Z,4.75
2022-08-17T08:37:45.053Z,5.38
2022-08-17T08:40:33.197Z,5.22
2022-08-17T08:43:12.670Z,5.25
2022-08-17T08:45:56.661Z,5.00
2022-08-17T08:49:10.116Z,5.63
2022-08-17T08:51:53.173Z,4.93
2022-08-17T08:54:39.661Z,5.03
2022-08-17T08:57:25.606Z,4.72
2022-08-17T09:00:09.050Z,4.78
2022-08-17T09:03:15.989Z,4.38
2022-08-17T09:06:01.851Z,4.55
2022-08-17T09:08:38.001Z,4.60
2022-08-17T09:11:12.633Z,6.50
2022-08-17T09:13:55.524Z,5.15
2022-08-17T09:16:29.871Z,5.15
2022-08-17T09:19:05.638Z,5.90
2022-08-17T09:21:47.686Z,4.82
2022-08-17T09:24:25.164Z,5.38
2022-08-17T09:26:59.222Z,5.40
2022-08-17T09:29:35.275Z,6.05
2022-08-17T09:32:10.884Z,4.90
2022-08-17T09:34:47.019Z,6.28
2022-08-17T09:37:23.666Z,4.40
2022-08-17T09:40:04.829Z,4.88
2022-08-17T09:42:41.101Z,3.65
2022-08-17T09:45:26.302Z,4.00
2022-08-17T09:48:00.748Z,3.65
2022-08-17T09:51:03.893Z,4.43
2022-08-17T09:53:24.008Z,4.22
2022-08-17T09:56:07.873Z,5.35
2022-08-17T09:58:47.825Z,3.97
2022-08-17T10:01:27.411Z,4.28
2022-08-17T10:04:16.877Z,5.35
2022-08-17T10:06:57.820Z,4.07
2022-08-17T10:09:45.244Z,3.97
2022-08-17T10:12:30.059Z,4.57
2022-08-17T10:15:15.407Z,4.85
2022-08-17T10:18:07.490Z,4.78
2022-08-17T10:20:48.196Z,4.72
2022-08-17T10:23:39.658Z,4.78
2022-08-17T10:26:15.599Z,4.80
2022-08-17T10:28:50.891Z,4.65
2022-08-17T10:31:40.049Z,5.03
2022-08-17T10:34:41.823Z,4.40
2022-08-17T10:37:29.481Z,4.50
2022-08-17T10:40:11.583Z,5.05
2022-08-17T10:42:50.345Z,4.70
2022-08-17T10:45:26.409Z,5.55
2022-08-17T10:48:05.325Z,4.90
2022-08-17T10:50:58.844Z,4.13
2022-08-17T10:54:01.829Z,4.45
2022-08-17T10:56:45.712Z,5.00
2022-08-17T10:59:50.026Z,5.38
2022-08-17T11:02:26.243Z,4.82
2022-08-17T11:05:07.840Z,5.60
2022-08-17T11:10:52.183Z,4.28
2022-08-17T11:13:30.663Z,4.57
2022-08-17T11:16:12.517Z,5.70
2022-08-17T11:19:14.136Z,5.80
2022-08-17T11:22:18.496Z,5.15
2022-08-17T11:24:51.399Z,5.93
2022-08-17T11:27:27.801Z,5.50
2022-08-17T11:30:02.200Z,5.60
2022-08-17T11:32:38.998Z,6.85
2022-08-17T11:35:30.429Z,6.18
2022-08-17T11:38:16.440Z,7.43
2022-08-17T11:41:08.272Z,5.95
2022-08-17T11:44:02.018Z,6.07
2022-08-17T11:46:59.908Z,5.30
2022-08-17T11:50:01.766Z,5.25
2022-08-17T11:55:34.111Z,4.93
2022-08-17T12:00:51.987Z,4.00
2022-08-17T12:03:39.334Z,4.55
2022-08-17T12:06:13.640Z,4.05
2022-08-17T12:08:43.538Z,3.88
2022-08-17T12:12:01.622Z,4.93
2022-08-17T12:14:15.044Z,5.20
2022-08-17T12:16:46.075Z,4.60
2022-08-17T12:19:23.911Z,4.72
2022-08-17T12:21:59.259Z,4.72
2022-08-17T12:24:46.623Z,4.30
2022-08-17T12:27:47.636Z,5.15
2022-08-17T12:30:17.097Z,4.25
2022-08-17T12:32:47.781Z,3.60
2022-08-17T12:35:23.034Z,3.43
2022-08-17T12:37:51.802Z,4.10
2022-08-17T12:40:23.626Z,4.07
2022-08-17T12:42:57.493Z,4.35
2022-08-17T12:45:29.390Z,5.13
2022-08-17T12:48:07.897Z,4.47
2022-08-17T12:50:38.590Z,4.70
2022-08-17T12:53:12.720Z,4.68
2022-08-17T12:55:41.587Z,4.97
2022-08-17T12:58:14.803Z,4.90
2022-08-17T13:00:51.832Z,4.00
2022-08-17T13:03:23.137Z,4.57
2022-08-17T13:06:02.119Z,4.97
2022-08-17T13:08:33.125Z,4.53
2022-08-17T13:11:04.997Z,4.28
2022-08-17T13:13:34.931Z,4.07
2022-08-17T13:16:07.090Z,3.63
2022-08-17T13:18:43.548Z,3.40
2022-08-17T13:21:27.393Z,3.83
2022-08-17T13:23:58.531Z,3.72
2022-08-17T13:26:34.115Z,4.03
2022-08-17T13:29:03.988Z,4.05
2022-08-17T13:31:41.406Z,3.95
2022-08-17T13:34:56.175Z,5.00
2022-08-17T13:37:32.834Z,3.58
2022-08-17T13:40:22.722Z,2.78
2022-08-17T13:42:54.080Z,2.00
2022-08-17T13:45:38.901Z,2.15
2022-08-17T13:48:17.946Z,1.30
2022-08-17T13:50:48.464Z,1.02
2022-08-17T13:53:21.888Z,0.70
2022-08-17T13:55:53.026Z,0.82
2022-08-17T13:58:24.256Z,1.20
2022-08-17T14:00:52.973Z,1.05
2022-08-17T14:03:23.083Z,1.60
2022-08-17T14:05:53.271Z,1.20
2022-08-17T14:08:21.920Z,0.85
2022-08-17T14:10:58.809Z,1.23
2022-08-17T14:13:28.710Z,1.92
2022-08-17T14:15:57.110Z,1.55
2022-08-17T14:18:55.249Z,2.33
2022-08-17T14:21:15.767Z,2.03
2022-08-17T14:23:49.072Z,1.80
2022-08-17T14:26:23.530Z,1.88
2022-08-17T14:28:56.279Z,1.95
2022-08-17T14:31:26.773Z,1.75
2022-08-17T14:33:58.241Z,1.70
2022-08-17T14:38:54.329Z,1.73
2022-08-17T14:41:23.573Z,2.00
2022-08-17T14:43:53.045Z,1.88
2022-08-17T14:46:21.538Z,2.28
2022-08-17T14:48:57.166Z,4.57
2022-08-17T14:51:30.170Z,3.40
2022-08-17T14:53:58.449Z,3.35
2022-08-17T14:56:27.375Z,5.50
2022-08-17T14:58:59.996Z,3.00
2022-08-17T15:01:28.824Z,3.20
2022-08-17T15:03:57.282Z,2.75
2022-08-17T15:06:26.779Z,3.10
2022-08-17T15:08:54.922Z,4.07
2022-08-17T15:11:23.200Z,2.58
2022-08-17T15:13:52.395Z,2.80
2022-08-17T15:16:21.663Z,3.00
2022-08-17T15:18:50.258Z,2.50
2022-08-17T15:21:18.779Z,2.70
2022-08-17T15:23:48.484Z,2.40
2022-08-17T15:26:16.920Z,2.67
2022-08-17T15:28:49.967Z,3.05
2022-08-17T15:31:31.995Z,2.28
2022-08-17T15:34:00.664Z,2.30
2022-08-17T15:36:28.998Z,1.80
2022-08-17T15:38:58.923Z,1.75
2022-08-17T15:41:28.235Z,2.17
2022-08-17T15:43:57.018Z,1.88
2022-08-17T15:46:27.212Z,2.30
2022-08-17T15:48:59.454Z,1.70
2022-08-17T15:51:30.304Z,2.50
2022-08-17T15:54:04.516Z,2.65
2022-08-17T15:56:48.013Z,1.88
2022-08-17T15:59:16.179Z,2.35
2022-08-17T16:03:01.812Z,2.45
2022-08-17T16:04:32.547Z,2.45
2022-08-17T16:07:01.540Z,2.70
2022-08-17T16:09:31.106Z,2.42
2022-08-17T16:11:59.327Z,2.58
2022-08-17T16:14:34.995Z,2.22
2022-08-17T16:17:03.594Z,2.65
2022-08-17T16:19:32.585Z,2.97
2022-08-17T16:22:00.881Z,2.67
2022-08-17T16:24:31.506Z,2.63
2022-08-17T16:27:00.182Z,2.30
2022-08-17T16:29:28.537Z,2.70
2022-08-17T16:31:57.159Z,3.38
2022-08-17T16:34:25.858Z,2.88
2022-08-17T16:36:56.471Z,2.58
2022-08-17T16:39:26.821Z,2.85
2022-08-17T16:41:56.669Z,2.80
2022-08-17T16:44:25.951Z,2.67
2022-08-17T16:46:54.328Z,3.25
2022-08-17T16:49:36.173Z,2.95
2022-08-17T16:52:10.450Z,2.65
2022-08-17T16:54:43.975Z,2.60
2022-08-17T16:57:15.812Z,2.33
2022-08-17T17:02:17.563Z,3.47
2022-08-17T17:04:52.929Z,3.10
2022-08-17T17:07:34.978Z,3.20
2022-08-17T17:10:08.917Z,3.47
2022-08-17T17:13:02.119Z,4.20
2022-08-17T17:15:41.512Z,3.55
2022-08-17T17:18:13.377Z,4.17
2022-08-17T17:20:47.545Z,3.63
2022-08-17T17:23:33.460Z,3.78
2022-08-17T17:26:11.126Z,2.38
2022-08-17T17:28:49.194Z,3.08
2022-08-17T17:31:20.575Z,2.65
2022-08-17T17:33:53.070Z,3.70
2022-08-17T17:36:27.256Z,2.72
2022-08-17T17:39:01.603Z,3.03
2022-08-17T17:41:38.425Z,2.67
2022-08-17T17:44:12.330Z,2.40
2022-08-17T17:46:47.197Z,2.80
2022-08-17T17:49:18.650Z,2.33
2022-08-17T17:54:52.404Z,2.47
2022-08-17T17:57:30.151Z,3.70
2022-08-17T18:00:08.484Z,2.78
2022-08-17T18:02:51.534Z,2.90
2022-08-17T18:05:36.144Z,3.05
2022-08-17T18:08:16.540Z,2.83
2022-08-17T18:10:51.662Z,2.95
2022-08-17T18:13:30.169Z,2.97
2022-08-17T18:16:01.225Z,2.92
2022-08-17T18:18:38.091Z,3.65
2022-08-17T18:21:15.995Z,2.13
2022-08-17T18:23:51.014Z,4.53
2022-08-17T18:26:44.713Z,2.42
2022-08-17T18:29:27.287Z,2.72
2022-08-17T18:34:51.411Z,2.78
2022-08-17T18:37:45.190Z,2.80
2022-08-17T18:40:30.265Z,2.75
2022-08-17T18:43:06.471Z,2.80
2022-08-17T18:45:40.836Z,2.40
2022-08-17T18:48:20.945Z,2.40
2022-08-17T18:50:53.554Z,2.65
2022-08-17T18:53:33.939Z,2.60
2022-08-17T18:56:30.725Z,4.47
2022-08-17T18:59:10.228Z,2.63
2022-08-17T19:01:53.542Z,2.42
2022-08-17T19:04:35.412Z,3.53
2022-08-17T19:07:13.416Z,2.30
2022-08-17T19:09:45.470Z,2.30
2022-08-17T19:12:27.312Z,3.30
2022-08-17T19:14:57.827Z,2.80
2022-08-17T19:17:35.497Z,4.13
2022-08-17T19:20:11.576Z,2.83
2022-08-17T19:22:55.603Z,2.55
2022-08-17T19:25:28.243Z,2.95
2022-08-17T19:28:03.095Z,2.78
2022-08-17T19:30:33.009Z,2.63
2022-08-17T19:33:03.406Z,2.55
2022-08-17T19:35:42.232Z,2.70
2022-08-17T19:38:20.917Z,2.85
2022-08-17T19:41:04.509Z,3.53
2022-08-17T19:43:57.578Z,3.20
2022-08-17T19:46:36.413Z,3.10
2022-08-17T19:49:14.653Z,3.00
2022-08-17T19:51:48.844Z,2.70
2022-08-17T19:54:25.682Z,3.58
2022-08-17T19:56:59.337Z,3.03
2022-08-17T19:59:49.096Z,3.10
2022-08-17T20:02:27.895Z,2.72
2022-08-17T20:05:00.108Z,2.53
2022-08-17T20:07:36.927Z,3.00
2022-08-17T20:10:09.159Z,2.88
2022-08-17T20:12:39.468Z,3.00
2022-08-17T20:15:11.585Z,2.83
2022-08-17T20:17:42.738Z,3.30
2022-08-17T20:20:24.125Z,3.00
2022-08-17T20:22:59.585Z,2.65
2022-08-17T20:25:37.129Z,2.95
2022-08-17T20:28:17.680Z,3.20
2022-08-17T20:30:46.446Z,3.57
2022-08-17T20:33:26.870Z,2.90
2022-08-17T20:36:15.815Z,3.47
2022-08-17T20:38:46.365Z,3.03
2022-08-17T20:41:18.444Z,3.67
2022-08-17T20:44:05.786Z,3.17
2022-08-17T20:46:57.320Z,3.30
2022-08-17T20:49:32.322Z,3.15
2022-08-17T20:52:07.744Z,3.15
2022-08-17T20:54:50.983Z,3.88
2022-08-17T20:57:50.898Z,3.08
2022-08-17T21:00:46.863Z,3.00
2022-08-17T21:03:51.768Z,3.35
2022-08-17T21:06:26.902Z,4.00
2022-08-17T21:08:59.020Z,2.22
2022-08-17T21:12:03.910Z,2.85
2022-08-17T21:15:02.038Z,2.72
2022-08-17T21:17:46.568Z,2.65
2022-08-17T21:20:32.501Z,4.18
2022-08-17T21:23:27.038Z,2.65
2022-08-17T21:26:17.457Z,3.63
2022-08-17T21:29:29.659Z,3.35
2022-08-17T21:32:19.245Z,3.08
2022-08-17T21:35:24.943Z,3.70
2022-08-17T21:37:57.575Z,3.45
2022-08-17T21:40:29.322Z,3.78
2022-08-17T21:43:01.599Z,3.72
2022-08-17T21:45:35.698Z,3.50
2022-08-17T21:48:16.256Z,3.72
2022-08-17T21:50:47.670Z,4.57
2022-08-17T21:53:27.028Z,3.35
2022-08-17T21:55:59.174Z,3.38
2022-08-17T21:58:31.433Z,4.15
2022-08-17T22:01:23.604Z,3.80
2022-08-17T22:04:20.770Z,4.43
2022-08-17T22:06:56.811Z,3.90
2022-08-17T22:09:27.820Z,3.80
2022-08-17T22:11:59.710Z,4.13
2022-08-17T22:14:51.714Z,3.67
2022-08-17T22:17:24.545Z,3.55
2022-08-17T22:19:56.491Z,3.15
2022-08-17T22:22:34.190Z,3.80
2022-08-17T22:25:05.801Z,3.15
2022-08-17T22:27:55.912Z,3.03
2022-08-17T22:30:37.968Z,2.63
2022-08-17T22:33:35.909Z,2.55
2022-08-17T22:36:24.601Z,2.30
2022-08-17T22:38:55.117Z,3.00
2022-08-17T22:41:42.278Z,2.10
2022-08-17T22:44:23.311Z,2.78
2022-08-17T22:47:25.555Z,1.92
2022-08-17T22:49:57.690Z,2.30
2022-08-17T22:52:35.606Z,2.20
2022-08-17T22:55:32.432Z,2.60
2022-08-17T22:58:28.412Z,2.17
2022-08-17T23:00:57.010Z,2.35
2022-08-17T23:03:28.107Z,2.97
2022-08-17T23:06:06.878Z,2.28
2022-08-17T23:08:43.699Z,2.90
2022-08-17T23:11:11.991Z,2.35
2022-08-17T23:13:40.482Z,2.10
2022-08-17T23:16:08.606Z,2.28
2022-08-17T23:18:37.534Z,2.10
2022-08-17T23:21:07.493Z,2.35
2022-08-17T23:23:38.168Z,2.42
2022-08-17T23:26:10.553Z,2.53
2022-08-17T23:28:41.149Z,2.50
2022-08-17T23:31:09.904Z,2.20
2022-08-17T23:33:40.939Z,2.95
2022-08-17T23:36:15.341Z,2.47
2022-08-17T23:38:46.920Z,2.30
2022-08-17T23:41:18.280Z,2.75
2022-08-17T23:43:49.516Z,2.15
2022-08-17T23:46:18.436Z,2.28
2022-08-17T23:48:46.794Z,2.22
2022-08-17T23:51:19.098Z,1.77
2022-08-17T23:53:52.987Z,2.20
2022-08-17T23:56:24.635Z,2.15
2022-08-17T23:58:54.851Z,2.25
